sensor_id;sensor_type;location;lat;lon;timestamp;P1;durP1;ratioP1;P2;durP2;ratioP2
80711;SDS011;70078;51.596;5.678;2023-10-19T00:01:31;11.80;;;7.93;;
80711;SDS011;70078;51.596;5.678;2023-10-19T00:03:58;11.75;;;6.80;;
80711;SDS011;70078;51.596;5.678;2023-10-19T00:06:24;11.23;;;6.75;;
80711;SDS011;70078;51.596;5.678;2023-10-19T00:08:49;11.65;;;7.57;;
80711;SDS011;70078;51.596;5.678;2023-10-19T00:11:17;12.32;;;8.43;;
80711;SDS011;70078;51.596;5.678;2023-10-19T00:13:47;11.43;;;6.68;;
80711;SDS011;70078;51.596;5.678;2023-10-19T00:16:15;11.32;;;6.97;;
80711;SDS011;70078;51.596;5.678;2023-10-19T00:21:13;9.75;;;6.63;;
80711;SDS011;70078;51.596;5.678;2023-10-19T00:23:50;9.02;;;6.97;;
80711;SDS011;70078;51.596;5.678;2023-10-19T00:26:20;11.07;;;7.28;;
80711;SDS011;70078;51.596;5.678;2023-10-19T00:28:46;12.38;;;8.00;;
80711;SDS011;70078;51.596;5.678;2023-10-19T00:31:15;11.52;;;6.95;;
80711;SDS011;70078;51.596;5.678;2023-10-19T00:33:41;10.75;;;7.50;;
80711;SDS011;70078;51.596;5.678;2023-10-19T00:36:09;9.77;;;7.47;;
80711;SDS011;70078;51.596;5.678;2023-10-19T00:38:38;12.95;;;8.32;;
80711;SDS011;70078;51.596;5.678;2023-10-19T00:41:08;10.82;;;7.03;;
80711;SDS011;70078;51.596;5.678;2023-10-19T00:43:35;9.82;;;7.45;;
80711;SDS011;70078;51.596;5.678;2023-10-19T00:46:03;11.20;;;7.50;;
80711;SDS011;70078;51.596;5.678;2023-10-19T00:48:35;11.10;;;7.72;;
80711;SDS011;70078;51.596;5.678;2023-10-19T00:51:01;11.95;;;7.68;;
80711;SDS011;70078;51.596;5.678;2023-10-19T00:53:52;8.88;;;6.03;;
80711;SDS011;70078;51.596;5.678;2023-10-19T00:56:19;10.85;;;6.90;;
80711;SDS011;70078;51.596;5.678;2023-10-19T00:58:48;8.68;;;6.13;;
80711;SDS011;70078;51.596;5.678;2023-10-19T01:01:22;10.35;;;6.82;;
80711;SDS011;70078;51.596;5.678;2023-10-19T01:03:53;9.77;;;5.82;;
80711;SDS011;70078;51.596;5.678;2023-10-19T01:06:21;9.60;;;6.53;;
80711;SDS011;70078;51.596;5.678;2023-10-19T01:08:50;9.63;;;6.80;;
80711;SDS011;70078;51.596;5.678;2023-10-19T01:11:16;11.05;;;7.10;;
80711;SDS011;70078;51.596;5.678;2023-10-19T01:13:45;10.88;;;7.50;;
80711;SDS011;70078;51.596;5.678;2023-10-19T01:16:15;9.75;;;6.82;;
80711;SDS011;70078;51.596;5.678;2023-10-19T01:18:45;11.43;;;7.47;;
80711;SDS011;70078;51.596;5.678;2023-10-19T01:21:12;10.57;;;6.93;;
80711;SDS011;70078;51.596;5.678;2023-10-19T01:23:37;11.43;;;7.38;;
80711;SDS011;70078;51.596;5.678;2023-10-19T01:26:04;9.65;;;7.03;;
80711;SDS011;70078;51.596;5.678;2023-10-19T01:28:36;10.15;;;6.78;;
80711;SDS011;70078;51.596;5.678;2023-10-19T01:31:05;10.13;;;6.70;;
80711;SDS011;70078;51.596;5.678;2023-10-19T01:33:38;12.57;;;7.60;;
80711;SDS011;70078;51.596;5.678;2023-10-19T01:36:05;8.95;;;6.28;;
80711;SDS011;70078;51.596;5.678;2023-10-19T01:38:36;9.63;;;6.88;;
80711;SDS011;70078;51.596;5.678;2023-10-19T01:41:03;10.05;;;6.43;;
80711;SDS011;70078;51.596;5.678;2023-10-19T01:43:49;8.30;;;6.32;;
80711;SDS011;70078;51.596;5.678;2023-10-19T01:46:16;8.25;;;6.38;;
80711;SDS011;70078;51.596;5.678;2023-10-19T01:48:51;8.68;;;6.15;;
80711;SDS011;70078;51.596;5.678;2023-10-19T01:51:24;9.30;;;6.10;;
80711;SDS011;70078;51.596;5.678;2023-10-19T01:53:51;8.15;;;6.22;;
80711;SDS011;70078;51.596;5.678;2023-10-19T01:56:18;8.82;;;6.40;;
80711;SDS011;70078;51.596;5.678;2023-10-19T01:58:44;8.55;;;6.05;;
80711;SDS011;70078;51.596;5.678;2023-10-19T02:01:13;10.38;;;6.07;;
80711;SDS011;70078;51.596;5.678;2023-10-19T02:03:53;7.30;;;5.43;;
80711;SDS011;70078;51.596;5.678;2023-10-19T02:06:24;8.43;;;5.53;;
80711;SDS011;70078;51.596;5.678;2023-10-19T02:08:56;9.73;;;5.90;;
80711;SDS011;70078;51.596;5.678;2023-10-19T02:11:46;7.32;;;5.80;;
80711;SDS011;70078;51.596;5.678;2023-10-19T02:14:14;10.65;;;7.68;;
80711;SDS011;70078;51.596;5.678;2023-10-19T02:16:41;14.40;;;10.02;;
80711;SDS011;70078;51.596;5.678;2023-10-19T02:19:08;12.15;;;9.05;;
80711;SDS011;70078;51.596;5.678;2023-10-19T02:21:33;13.27;;;7.88;;
80711;SDS011;70078;51.596;5.678;2023-10-19T02:24:04;10.55;;;5.97;;
80711;SDS011;70078;51.596;5.678;2023-10-19T02:26:32;8.85;;;5.97;;
80711;SDS011;70078;51.596;5.678;2023-10-19T02:28:58;9.40;;;4.93;;
80711;SDS011;70078;51.596;5.678;2023-10-19T02:31:24;11.27;;;4.38;;
80711;SDS011;70078;51.596;5.678;2023-10-19T02:33:51;5.90;;;4.15;;
80711;SDS011;70078;51.596;5.678;2023-10-19T02:36:23;8.02;;;3.75;;
80711;SDS011;70078;51.596;5.678;2023-10-19T02:38:49;7.45;;;3.45;;
80711;SDS011;70078;51.596;5.678;2023-10-19T02:41:15;5.65;;;3.25;;
80711;SDS011;70078;51.596;5.678;2023-10-19T02:43:42;7.82;;;4.20;;
80711;SDS011;70078;51.596;5.678;2023-10-19T02:46:12;8.38;;;4.72;;
80711;SDS011;70078;51.596;5.678;2023-10-19T02:48:38;5.93;;;3.80;;
80711;SDS011;70078;51.596;5.678;2023-10-19T02:51:09;7.30;;;5.07;;
80711;SDS011;70078;51.596;5.678;2023-10-19T02:53:36;11.23;;;4.68;;
80711;SDS011;70078;51.596;5.678;2023-10-19T02:56:09;6.55;;;4.07;;
80711;SDS011;70078;51.596;5.678;2023-10-19T02:58:35;6.80;;;4.20;;
80711;SDS011;70078;51.596;5.678;2023-10-19T03:01:01;8.30;;;4.72;;
80711;SDS011;70078;51.596;5.678;2023-10-19T03:03:26;7.32;;;4.60;;
80711;SDS011;70078;51.596;5.678;2023-10-19T03:05:52;10.30;;;5.00;;
80711;SDS011;70078;51.596;5.678;2023-10-19T03:08:17;9.13;;;5.25;;
80711;SDS011;70078;51.596;5.678;2023-10-19T03:10:44;6.22;;;4.40;;
80711;SDS011;70078;51.596;5.678;2023-10-19T03:13:09;11.38;;;4.90;;
80711;SDS011;70078;51.596;5.678;2023-10-19T03:15:36;7.97;;;4.10;;
80711;SDS011;70078;51.596;5.678;2023-10-19T03:18:07;6.22;;;4.60;;
80711;SDS011;70078;51.596;5.678;2023-10-19T03:20:33;9.60;;;4.70;;
80711;SDS011;70078;51.596;5.678;2023-10-19T03:22:58;6.75;;;4.50;;
80711;SDS011;70078;51.596;5.678;2023-10-19T03:25:26;6.65;;;4.40;;
80711;SDS011;70078;51.596;5.678;2023-10-19T03:28:10;7.20;;;4.03;;
80711;SDS011;70078;51.596;5.678;2023-10-19T03:30:36;8.98;;;4.75;;
80711;SDS011;70078;51.596;5.678;2023-10-19T03:33:08;7.15;;;4.15;;
80711;SDS011;70078;51.596;5.678;2023-10-19T03:35:37;7.78;;;4.38;;
80711;SDS011;70078;51.596;5.678;2023-10-19T03:38:06;8.35;;;3.90;;
80711;SDS011;70078;51.596;5.678;2023-10-19T03:40:43;10.98;;;4.35;;
80711;SDS011;70078;51.596;5.678;2023-10-19T03:43:17;6.50;;;3.58;;
80711;SDS011;70078;51.596;5.678;2023-10-19T03:45:48;6.68;;;4.00;;
80711;SDS011;70078;51.596;5.678;2023-10-19T03:48:18;5.65;;;4.15;;
80711;SDS011;70078;51.596;5.678;2023-10-19T03:50:50;5.45;;;3.50;;
80711;SDS011;70078;51.596;5.678;2023-10-19T03:53:17;7.30;;;3.75;;
80711;SDS011;70078;51.596;5.678;2023-10-19T03:55:42;6.75;;;3.85;;
80711;SDS011;70078;51.596;5.678;2023-10-19T03:58:08;6.00;;;3.45;;
80711;SDS011;70078;51.596;5.678;2023-10-19T04:00:34;7.03;;;3.30;;
80711;SDS011;70078;51.596;5.678;2023-10-19T04:02:59;7.35;;;3.75;;
80711;SDS011;70078;51.596;5.678;2023-10-19T04:05:24;5.78;;;3.40;;
80711;SDS011;70078;51.596;5.678;2023-10-19T04:07:51;6.03;;;3.67;;
80711;SDS011;70078;51.596;5.678;2023-10-19T04:10:20;5.03;;;3.38;;
80711;SDS011;70078;51.596;5.678;2023-10-19T04:12:55;5.68;;;3.40;;
80711;SDS011;70078;51.596;5.678;2023-10-19T04:15:21;4.70;;;3.08;;
80711;SDS011;70078;51.596;5.678;2023-10-19T04:17:47;7.38;;;3.20;;
80711;SDS011;70078;51.596;5.678;2023-10-19T04:20:18;5.72;;;2.95;;
80711;SDS011;70078;51.596;5.678;2023-10-19T04:22:53;7.47;;;3.50;;
80711;SDS011;70078;51.596;5.678;2023-10-19T04:25:19;10.25;;;2.92;;
80711;SDS011;70078;51.596;5.678;2023-10-19T04:27:45;5.90;;;3.20;;
80711;SDS011;70078;51.596;5.678;2023-10-19T04:30:14;4.20;;;3.03;;
80711;SDS011;70078;51.596;5.678;2023-10-19T04:32:47;3.75;;;2.45;;
80711;SDS011;70078;51.596;5.678;2023-10-19T04:35:14;4.55;;;2.83;;
80711;SDS011;70078;51.596;5.678;2023-10-19T04:37:49;6.80;;;2.80;;
80711;SDS011;70078;51.596;5.678;2023-10-19T04:40:19;4.07;;;2.35;;
80711;SDS011;70078;51.596;5.678;2023-10-19T04:42:45;4.53;;;2.92;;
80711;SDS011;70078;51.596;5.678;2023-10-19T04:45:11;9.00;;;3.08;;
80711;SDS011;70078;51.596;5.678;2023-10-19T04:47:37;7.10;;;2.97;;
80711;SDS011;70078;51.596;5.678;2023-10-19T04:50:03;8.25;;;2.83;;
80711;SDS011;70078;51.596;5.678;2023-10-19T04:52:29;3.80;;;2.30;;
80711;SDS011;70078;51.596;5.678;2023-10-19T04:54:54;4.82;;;2.60;;
80711;SDS011;70078;51.596;5.678;2023-10-19T04:57:20;3.83;;;2.33;;
80711;SDS011;70078;51.596;5.678;2023-10-19T04:59:46;5.10;;;2.55;;
80711;SDS011;70078;51.596;5.678;2023-10-19T05:02:11;8.55;;;2.95;;
80711;SDS011;70078;51.596;5.678;2023-10-19T05:04:37;5.95;;;2.42;;
80711;SDS011;70078;51.596;5.678;2023-10-19T05:07:02;5.95;;;2.85;;
80711;SDS011;70078;51.596;5.678;2023-10-19T05:09:31;5.35;;;2.17;;
80711;SDS011;70078;51.596;5.678;2023-10-19T05:11:57;5.10;;;2.05;;
80711;SDS011;70078;51.596;5.678;2023-10-19T05:14:22;5.07;;;1.80;;
80711;SDS011;70078;51.596;5.678;2023-10-19T05:16:47;6.72;;;2.03;;
80711;SDS011;70078;51.596;5.678;2023-10-19T05:19:13;5.50;;;2.30;;
80711;SDS011;70078;51.596;5.678;2023-10-19T05:21:39;5.22;;;1.58;;
80711;SDS011;70078;51.596;5.678;2023-10-19T05:24:04;4.07;;;1.70;;
80711;SDS011;70078;51.596;5.678;2023-10-19T05:26:30;4.57;;;1.70;;
80711;SDS011;70078;51.596;5.678;2023-10-19T05:28:58;4.10;;;1.42;;
80711;SDS011;70078;51.596;5.678;2023-10-19T05:31:23;6.15;;;1.88;;
80711;SDS011;70078;51.596;5.678;2023-10-19T05:33:49;6.28;;;1.48;;
80711;SDS011;70078;51.596;5.678;2023-10-19T05:36:14;3.67;;;1.30;;
80711;SDS011;70078;51.596;5.678;2023-10-19T05:38:40;7.22;;;1.40;;
80711;SDS011;70078;51.596;5.678;2023-10-19T05:41:06;4.45;;;1.35;;
80711;SDS011;70078;51.596;5.678;2023-10-19T05:43:32;5.63;;;1.67;;
80711;SDS011;70078;51.596;5.678;2023-10-19T05:45:59;2.60;;;1.23;;
80711;SDS011;70078;51.596;5.678;2023-10-19T05:48:25;6.57;;;1.27;;
80711;SDS011;70078;51.596;5.678;2023-10-19T05:50:50;8.45;;;1.48;;
80711;SDS011;70078;51.596;5.678;2023-10-19T05:53:19;6.90;;;1.65;;
80711;SDS011;70078;51.596;5.678;2023-10-19T05:55:47;4.35;;;1.30;;
80711;SDS011;70078;51.596;5.678;2023-10-19T05:58:13;4.88;;;1.30;;
80711;SDS011;70078;51.596;5.678;2023-10-19T06:00:38;4.32;;;1.25;;
80711;SDS011;70078;51.596;5.678;2023-10-19T06:03:03;4.57;;;1.58;;
80711;SDS011;70078;51.596;5.678;2023-10-19T06:05:29;4.53;;;1.85;;
80711;SDS011;70078;51.596;5.678;2023-10-19T06:07:55;6.38;;;1.52;;
80711;SDS011;70078;51.596;5.678;2023-10-19T06:10:21;7.78;;;1.70;;
80711;SDS011;70078;51.596;5.678;2023-10-19T06:12:50;5.28;;;1.23;;
80711;SDS011;70078;51.596;5.678;2023-10-19T06:15:17;7.50;;;1.95;;
80711;SDS011;70078;51.596;5.678;2023-10-19T06:17:45;4.70;;;1.60;;
80711;SDS011;70078;51.596;5.678;2023-10-19T06:20:12;6.45;;;1.45;;
80711;SDS011;70078;51.596;5.678;2023-10-19T06:22:54;7.90;;;1.75;;
80711;SDS011;70078;51.596;5.678;2023-10-19T06:25:22;6.38;;;1.92;;
80711;SDS011;70078;51.596;5.678;2023-10-19T06:27:49;5.90;;;1.38;;
80711;SDS011;70078;51.596;5.678;2023-10-19T06:30:15;2.83;;;1.38;;
80711;SDS011;70078;51.596;5.678;2023-10-19T06:32:48;7.00;;;1.60;;
80711;SDS011;70078;51.596;5.678;2023-10-19T06:35:15;5.13;;;1.33;;
80711;SDS011;70078;51.596;5.678;2023-10-19T06:37:42;6.57;;;1.90;;
80711;SDS011;70078;51.596;5.678;2023-10-19T06:40:07;4.55;;;1.40;;
80711;SDS011;70078;51.596;5.678;2023-10-19T06:42:33;8.27;;;1.50;;
80711;SDS011;70078;51.596;5.678;2023-10-19T06:45:00;5.97;;;1.55;;
80711;SDS011;70078;51.596;5.678;2023-10-19T06:47:25;6.78;;;1.63;;
80711;SDS011;70078;51.596;5.678;2023-10-19T06:49:51;7.40;;;1.85;;
80711;SDS011;70078;51.596;5.678;2023-10-19T06:52:16;8.45;;;1.70;;
80711;SDS011;70078;51.596;5.678;2023-10-19T06:54:41;3.03;;;1.30;;
80711;SDS011;70078;51.596;5.678;2023-10-19T06:57:07;7.07;;;1.58;;
80711;SDS011;70078;51.596;5.678;2023-10-19T06:59:33;6.00;;;1.77;;
80711;SDS011;70078;51.596;5.678;2023-10-19T07:02:01;6.65;;;1.75;;
80711;SDS011;70078;51.596;5.678;2023-10-19T07:04:28;8.00;;;1.73;;
80711;SDS011;70078;51.596;5.678;2023-10-19T07:06:54;5.95;;;1.58;;
80711;SDS011;70078;51.596;5.678;2023-10-19T07:09:19;4.97;;;1.73;;
80711;SDS011;70078;51.596;5.678;2023-10-19T07:11:46;5.57;;;1.83;;
80711;SDS011;70078;51.596;5.678;2023-10-19T07:14:11;7.93;;;2.60;;
80711;SDS011;70078;51.596;5.678;2023-10-19T07:16:38;5.65;;;1.73;;
80711;SDS011;70078;51.596;5.678;2023-10-19T07:19:04;6.68;;;1.63;;
80711;SDS011;70078;51.596;5.678;2023-10-19T07:21:30;6.50;;;2.03;;
80711;SDS011;70078;51.596;5.678;2023-10-19T07:24:00;6.97;;;2.00;;
80711;SDS011;70078;51.596;5.678;2023-10-19T07:26:30;9.82;;;2.38;;
80711;SDS011;70078;51.596;5.678;2023-10-19T07:28:58;7.57;;;1.65;;
80711;SDS011;70078;51.596;5.678;2023-10-19T07:31:24;5.53;;;1.73;;
80711;SDS011;70078;51.596;5.678;2023-10-19T07:33:52;8.73;;;1.92;;
80711;SDS011;70078;51.596;5.678;2023-10-19T07:36:20;9.18;;;1.95;;
80711;SDS011;70078;51.596;5.678;2023-10-19T07:38:46;6.00;;;1.90;;
80711;SDS011;70078;51.596;5.678;2023-10-19T07:41:12;6.45;;;1.70;;
80711;SDS011;70078;51.596;5.678;2023-10-19T07:43:38;6.22;;;1.98;;
80711;SDS011;70078;51.596;5.678;2023-10-19T07:46:03;5.85;;;2.17;;
80711;SDS011;70078;51.596;5.678;2023-10-19T07:48:29;10.45;;;2.67;;
80711;SDS011;70078;51.596;5.678;2023-10-19T07:50:54;4.85;;;2.08;;
80711;SDS011;70078;51.596;5.678;2023-10-19T07:53:20;5.70;;;2.03;;
80711;SDS011;70078;51.596;5.678;2023-10-19T07:55:46;8.68;;;2.33;;
80711;SDS011;70078;51.596;5.678;2023-10-19T07:58:12;7.63;;;2.05;;
80711;SDS011;70078;51.596;5.678;2023-10-19T08:00:38;13.07;;;2.63;;
80711;SDS011;70078;51.596;5.678;2023-10-19T08:03:04;6.20;;;1.65;;
80711;SDS011;70078;51.596;5.678;2023-10-19T08:05:30;6.30;;;2.55;;
80711;SDS011;70078;51.596;5.678;2023-10-19T08:07:56;6.13;;;2.22;;
80711;SDS011;70078;51.596;5.678;2023-10-19T08:10:25;6.65;;;1.83;;
80711;SDS011;70078;51.596;5.678;2023-10-19T08:12:52;5.35;;;1.80;;
80711;SDS011;70078;51.596;5.678;2023-10-19T08:15:17;10.85;;;2.42;;
80711;SDS011;70078;51.596;5.678;2023-10-19T08:17:45;6.95;;;1.88;;
80711;SDS011;70078;51.596;5.678;2023-10-19T08:20:12;6.10;;;2.03;;
80711;SDS011;70078;51.596;5.678;2023-10-19T08:22:42;9.30;;;2.40;;
80711;SDS011;70078;51.596;5.678;2023-10-19T08:25:08;10.77;;;2.28;;
80711;SDS011;70078;51.596;5.678;2023-10-19T08:27:40;6.85;;;2.22;;
80711;SDS011;70078;51.596;5.678;2023-10-19T08:30:09;6.20;;;2.67;;
80711;SDS011;70078;51.596;5.678;2023-10-19T08:32:35;7.57;;;1.77;;
80711;SDS011;70078;51.596;5.678;2023-10-19T08:35:01;10.27;;;2.70;;
80711;SDS011;70078;51.596;5.678;2023-10-19T08:37:27;12.23;;;2.10;;
80711;SDS011;70078;51.596;5.678;2023-10-19T08:39:53;6.88;;;2.03;;
80711;SDS011;70078;51.596;5.678;2023-10-19T08:42:18;9.73;;;2.50;;
80711;SDS011;70078;51.596;5.678;2023-10-19T08:44:45;5.40;;;1.90;;
80711;SDS011;70078;51.596;5.678;2023-10-19T08:47:10;6.28;;;1.88;;
80711;SDS011;70078;51.596;5.678;2023-10-19T08:49:37;8.73;;;1.95;;
80711;SDS011;70078;51.596;5.678;2023-10-19T08:52:02;8.55;;;2.30;;
80711;SDS011;70078;51.596;5.678;2023-10-19T08:54:29;6.32;;;2.25;;
80711;SDS011;70078;51.596;5.678;2023-10-19T08:56:54;7.50;;;2.15;;
80711;SDS011;70078;51.596;5.678;2023-10-19T08:59:20;7.32;;;2.78;;
80711;SDS011;70078;51.596;5.678;2023-10-19T09:01:46;7.05;;;2.45;;
80711;SDS011;70078;51.596;5.678;2023-10-19T09:04:12;6.22;;;2.35;;
80711;SDS011;70078;51.596;5.678;2023-10-19T09:06:41;7.78;;;2.13;;
80711;SDS011;70078;51.596;5.678;2023-10-19T09:09:10;9.13;;;2.35;;
80711;SDS011;70078;51.596;5.678;2023-10-19T09:11:48;10.02;;;1.98;;
80711;SDS011;70078;51.596;5.678;2023-10-19T09:14:17;8.57;;;2.13;;
80711;SDS011;70078;51.596;5.678;2023-10-19T09:16:59;5.70;;;2.03;;
80711;SDS011;70078;51.596;5.678;2023-10-19T09:19:35;8.20;;;2.00;;
80711;SDS011;70078;51.596;5.678;2023-10-19T09:22:01;4.75;;;1.90;;
80711;SDS011;70078;51.596;5.678;2023-10-19T09:24:32;7.82;;;2.22;;
80711;SDS011;70078;51.596;5.678;2023-10-19T09:27:02;8.13;;;2.35;;
80711;SDS011;70078;51.596;5.678;2023-10-19T09:29:28;7.47;;;2.10;;
80711;SDS011;70078;51.596;5.678;2023-10-19T09:31:53;8.05;;;1.80;;
80711;SDS011;70078;51.596;5.678;2023-10-19T09:34:23;9.40;;;2.42;;
80711;SDS011;70078;51.596;5.678;2023-10-19T09:36:56;5.15;;;2.22;;
80711;SDS011;70078;51.596;5.678;2023-10-19T09:39:22;7.70;;;2.22;;
80711;SDS011;70078;51.596;5.678;2023-10-19T09:41:49;8.20;;;1.92;;
80711;SDS011;70078;51.596;5.678;2023-10-19T09:44:17;9.68;;;2.67;;
80711;SDS011;70078;51.596;5.678;2023-10-19T09:46:49;6.63;;;1.98;;
80711;SDS011;70078;51.596;5.678;2023-10-19T09:49:16;8.82;;;2.10;;
80711;SDS011;70078;51.596;5.678;2023-10-19T09:51:43;8.70;;;2.65;;
80711;SDS011;70078;51.596;5.678;2023-10-19T09:57:12;6.93;;;2.20;;
80711;SDS011;70078;51.596;5.678;2023-10-19T09:59:44;8.02;;;2.15;;
80711;SDS011;70078;51.596;5.678;2023-10-19T10:02:15;11.82;;;2.78;;
80711;SDS011;70078;51.596;5.678;2023-10-19T10:04:42;11.43;;;2.63;;
80711;SDS011;70078;51.596;5.678;2023-10-19T10:07:13;7.80;;;2.30;;
80711;SDS011;70078;51.596;5.678;2023-10-19T10:09:41;6.68;;;2.05;;
80711;SDS011;70078;51.596;5.678;2023-10-19T10:12:17;9.60;;;2.85;;
80711;SDS011;70078;51.596;5.678;2023-10-19T10:17:22;7.80;;;2.28;;
80711;SDS011;70078;51.596;5.678;2023-10-19T10:19:49;7.43;;;2.40;;
80711;SDS011;70078;51.596;5.678;2023-10-19T10:22:15;5.82;;;2.08;;
80711;SDS011;70078;51.596;5.678;2023-10-19T10:24:41;7.03;;;2.30;;
80711;SDS011;70078;51.596;5.678;2023-10-19T10:27:07;11.45;;;2.15;;
80711;SDS011;70078;51.596;5.678;2023-10-19T10:29:34;7.63;;;2.28;;
80711;SDS011;70078;51.596;5.678;2023-10-19T10:32:00;9.18;;;2.53;;
80711;SDS011;70078;51.596;5.678;2023-10-19T10:37:07;7.00;;;2.35;;
80711;SDS011;70078;51.596;5.678;2023-10-19T10:39:38;6.68;;;2.38;;
80711;SDS011;70078;51.596;5.678;2023-10-19T10:42:05;8.35;;;2.38;;
80711;SDS011;70078;51.596;5.678;2023-10-19T10:44:39;7.10;;;2.70;;
80711;SDS011;70078;51.596;5.678;2023-10-19T10:47:18;11.50;;;3.03;;
80711;SDS011;70078;51.596;5.678;2023-10-19T10:49:54;8.50;;;2.95;;
80711;SDS011;70078;51.596;5.678;2023-10-19T10:52:33;10.77;;;2.97;;
80711;SDS011;70078;51.596;5.678;2023-10-19T10:55:10;5.72;;;2.45;;
80711;SDS011;70078;51.596;5.678;2023-10-19T10:57:36;8.02;;;3.10;;
80711;SDS011;70078;51.596;5.678;2023-10-19T11:00:02;7.07;;;2.47;;
80711;SDS011;70078;51.596;5.678;2023-10-19T11:02:29;6.43;;;1.98;;
80711;SDS011;70078;51.596;5.678;2023-10-19T11:04:54;10.63;;;2.80;;
80711;SDS011;70078;51.596;5.678;2023-10-19T11:07:20;12.93;;;3.45;;
80711;SDS011;70078;51.596;5.678;2023-10-19T11:09:46;5.57;;;1.95;;
80711;SDS011;70078;51.596;5.678;2023-10-19T11:12:12;10.68;;;2.70;;
80711;SDS011;70078;51.596;5.678;2023-10-19T11:14:57;8.32;;;2.20;;
80711;SDS011;70078;51.596;5.678;2023-10-19T11:17:41;4.35;;;1.90;;
80711;SDS011;70078;51.596;5.678;2023-10-19T11:20:08;8.40;;;2.22;;
80711;SDS011;70078;51.596;5.678;2023-10-19T11:22:44;9.57;;;2.75;;
80711;SDS011;70078;51.596;5.678;2023-10-19T11:25:23;6.63;;;2.42;;
80711;SDS011;70078;51.596;5.678;2023-10-19T11:27:53;9.05;;;2.08;;
80711;SDS011;70078;51.596;5.678;2023-10-19T11:30:22;7.43;;;1.88;;
80711;SDS011;70078;51.596;5.678;2023-10-19T11:32:49;9.73;;;2.72;;
80711;SDS011;70078;51.596;5.678;2023-10-19T11:35:17;10.82;;;2.47;;
80711;SDS011;70078;51.596;5.678;2023-10-19T11:37:51;8.60;;;2.45;;
80711;SDS011;70078;51.596;5.678;2023-10-19T11:40:18;7.05;;;2.22;;
80711;SDS011;70078;51.596;5.678;2023-10-19T11:42:44;9.52;;;2.38;;
80711;SDS011;70078;51.596;5.678;2023-10-19T11:45:10;9.38;;;2.42;;
80711;SDS011;70078;51.596;5.678;2023-10-19T11:47:36;7.57;;;2.05;;
80711;SDS011;70078;51.596;5.678;2023-10-19T11:50:02;8.35;;;2.28;;
80711;SDS011;70078;51.596;5.678;2023-10-19T11:52:28;8.88;;;2.83;;
80711;SDS011;70078;51.596;5.678;2023-10-19T11:54:54;10.00;;;2.40;;
80711;SDS011;70078;51.596;5.678;2023-10-19T11:57:19;8.98;;;2.08;;
80711;SDS011;70078;51.596;5.678;2023-10-19T11:59:45;11.40;;;2.97;;
80711;SDS011;70078;51.596;5.678;2023-10-19T12:02:10;8.57;;;1.70;;
80711;SDS011;70078;51.596;5.678;2023-10-19T12:04:36;9.85;;;2.40;;
80711;SDS011;70078;51.596;5.678;2023-10-19T12:07:02;8.00;;;1.77;;
80711;SDS011;70078;51.596;5.678;2023-10-19T12:09:28;6.93;;;2.28;;
80711;SDS011;70078;51.596;5.678;2023-10-19T12:11:55;10.82;;;2.17;;
80711;SDS011;70078;51.596;5.678;2023-10-19T12:14:21;9.77;;;2.03;;
80711;SDS011;70078;51.596;5.678;2023-10-19T12:16:47;13.73;;;2.53;;
80711;SDS011;70078;51.596;5.678;2023-10-19T12:19:12;8.85;;;2.50;;
80711;SDS011;70078;51.596;5.678;2023-10-19T12:21:39;9.75;;;2.17;;
80711;SDS011;70078;51.596;5.678;2023-10-19T12:24:06;7.70;;;2.10;;
80711;SDS011;70078;51.596;5.678;2023-10-19T12:26:33;9.98;;;2.30;;
80711;SDS011;70078;51.596;5.678;2023-10-19T12:28:58;6.20;;;2.20;;
80711;SDS011;70078;51.596;5.678;2023-10-19T12:31:24;9.00;;;1.92;;
80711;SDS011;70078;51.596;5.678;2023-10-19T12:33:50;10.00;;;2.25;;
80711;SDS011;70078;51.596;5.678;2023-10-19T12:36:15;7.53;;;2.05;;
80711;SDS011;70078;51.596;5.678;2023-10-19T12:38:46;7.53;;;1.85;;
80711;SDS011;70078;51.596;5.678;2023-10-19T12:41:12;9.38;;;2.53;;
80711;SDS011;70078;51.596;5.678;2023-10-19T12:43:39;9.38;;;2.22;;
80711;SDS011;70078;51.596;5.678;2023-10-19T12:46:04;8.23;;;1.83;;
80711;SDS011;70078;51.596;5.678;2023-10-19T12:48:33;8.65;;;2.47;;
80711;SDS011;70078;51.596;5.678;2023-10-19T12:51:00;8.77;;;2.15;;
80711;SDS011;70078;51.596;5.678;2023-10-19T12:53:27;10.27;;;2.42;;
80711;SDS011;70078;51.596;5.678;2023-10-19T12:55:52;8.70;;;2.00;;
80711;SDS011;70078;51.596;5.678;2023-10-19T12:58:17;6.78;;;1.70;;
80711;SDS011;70078;51.596;5.678;2023-10-19T13:00:44;8.75;;;1.88;;
80711;SDS011;70078;51.596;5.678;2023-10-19T13:03:11;5.68;;;2.28;;
80711;SDS011;70078;51.596;5.678;2023-10-19T13:05:41;6.75;;;2.20;;
80711;SDS011;70078;51.596;5.678;2023-10-19T13:08:08;7.95;;;2.33;;
80711;SDS011;70078;51.596;5.678;2023-10-19T13:10:34;4.65;;;1.75;;
80711;SDS011;70078;51.596;5.678;2023-10-19T13:13:02;8.07;;;2.45;;
80711;SDS011;70078;51.596;5.678;2023-10-19T13:15:32;8.35;;;1.83;;
80711;SDS011;70078;51.596;5.678;2023-10-19T13:17:59;5.95;;;2.25;;
80711;SDS011;70078;51.596;5.678;2023-10-19T13:20:25;6.47;;;2.03;;
80711;SDS011;70078;51.596;5.678;2023-10-19T13:22:52;8.48;;;2.55;;
80711;SDS011;70078;51.596;5.678;2023-10-19T13:25:17;9.23;;;2.08;;
80711;SDS011;70078;51.596;5.678;2023-10-19T13:27:43;11.50;;;2.60;;
80711;SDS011;70078;51.596;5.678;2023-10-19T13:30:09;5.35;;;2.03;;
80711;SDS011;70078;51.596;5.678;2023-10-19T13:32:36;6.25;;;1.92;;
80711;SDS011;70078;51.596;5.678;2023-10-19T13:35:02;5.90;;;1.85;;
80711;SDS011;70078;51.596;5.678;2023-10-19T13:37:28;9.70;;;2.33;;
80711;SDS011;70078;51.596;5.678;2023-10-19T13:39:54;6.03;;;2.13;;
80711;SDS011;70078;51.596;5.678;2023-10-19T13:42:19;9.10;;;2.45;;
80711;SDS011;70078;51.596;5.678;2023-10-19T13:44:46;9.63;;;2.67;;
80711;SDS011;70078;51.596;5.678;2023-10-19T13:47:12;6.53;;;2.05;;
80711;SDS011;70078;51.596;5.678;2023-10-19T13:49:37;7.35;;;2.20;;
80711;SDS011;70078;51.596;5.678;2023-10-19T13:52:03;5.95;;;2.05;;
80711;SDS011;70078;51.596;5.678;2023-10-19T13:54:29;6.60;;;2.67;;
80711;SDS011;70078;51.596;5.678;2023-10-19T13:56:55;6.63;;;1.77;;
80711;SDS011;70078;51.596;5.678;2023-10-19T13:59:20;6.40;;;2.08;;
80711;SDS011;70078;51.596;5.678;2023-10-19T14:01:45;7.82;;;2.50;;
80711;SDS011;70078;51.596;5.678;2023-10-19T14:04:11;7.55;;;2.50;;
80711;SDS011;70078;51.596;5.678;2023-10-19T14:06:38;9.55;;;2.22;;
80711;SDS011;70078;51.596;5.678;2023-10-19T14:09:03;9.10;;;1.90;;
80711;SDS011;70078;51.596;5.678;2023-10-19T14:11:30;6.65;;;2.85;;
80711;SDS011;70078;51.596;5.678;2023-10-19T14:13:55;6.75;;;2.00;;
80711;SDS011;70078;51.596;5.678;2023-10-19T14:16:21;9.23;;;2.17;;
80711;SDS011;70078;51.596;5.678;2023-10-19T14:18:48;8.02;;;2.83;;
80711;SDS011;70078;51.596;5.678;2023-10-19T14:21:14;5.95;;;1.95;;
80711;SDS011;70078;51.596;5.678;2023-10-19T14:23:40;7.00;;;2.47;;
80711;SDS011;70078;51.596;5.678;2023-10-19T14:26:06;5.20;;;2.17;;
80711;SDS011;70078;51.596;5.678;2023-10-19T14:28:31;7.93;;;2.50;;
80711;SDS011;70078;51.596;5.678;2023-10-19T14:30:57;10.77;;;2.90;;
80711;SDS011;70078;51.596;5.678;2023-10-19T14:33:22;9.25;;;3.15;;
80711;SDS011;70078;51.596;5.678;2023-10-19T14:35:47;9.63;;;2.45;;
80711;SDS011;70078;51.596;5.678;2023-10-19T14:38:13;9.60;;;2.63;;
80711;SDS011;70078;51.596;5.678;2023-10-19T14:40:40;6.68;;;2.72;;
80711;SDS011;70078;51.596;5.678;2023-10-19T14:43:10;9.02;;;3.05;;
80711;SDS011;70078;51.596;5.678;2023-10-19T14:45:36;10.00;;;3.17;;
80711;SDS011;70078;51.596;5.678;2023-10-19T14:48:01;8.10;;;2.45;;
80711;SDS011;70078;51.596;5.678;2023-10-19T14:53:00;6.38;;;2.60;;
80711;SDS011;70078;51.596;5.678;2023-10-19T14:55:25;10.30;;;3.35;;
80711;SDS011;70078;51.596;5.678;2023-10-19T14:57:54;11.05;;;3.20;;
80711;SDS011;70078;51.596;5.678;2023-10-19T15:00:21;7.78;;;3.65;;
80711;SDS011;70078;51.596;5.678;2023-10-19T15:03:02;11.05;;;3.45;;